Terminal Aerodrome Forecast
Issued by NWS

Home | Current Version | Previous Version | Text Only | Print | Product List | Glossary On
Versions: 1 2 3 4 5 6 7 8 9 10 11 12 13
775
FTPA31 PHFO 201724
TAFHKO
TAF
PHKO 201724Z 2018/2118 23009KT P6SM SCT060
     FM210500 15008KT P6SM SCT060
     FM211200 08005KT P6SM SCT060=

USA.gov is the U.S. government's official web portal to all federal, state and local government web resources and services.